Clayburn, British Columbia

10:09 AM PDT on May 23, 2017 (GMT -0700)
Old Clayburn | | Change Station

Elev 243 ft 49.06 °N, 122.26 °W | Updated 35 seconds ago

Clear
Clear
70.1 °F
Feels Like 70.1 °F
N
0.0
Wind Variable Wind from East

Today
High -- | Low -- °F
--% Chance of Precip.
Yesterday
High -- | Low -- °F
Precip. -- in
Pressure 29.98 in
Visibility 30.0 miles
Clouds Few 19000 ft
Dew Point Not available.
Humidity Not available.
Rainfall 0.00 in
Snow Depth Not available.
5:16 AM 8:55 PM
Waning Crescent, 7% visible
METAR CYXX 231700Z 22005KT 190V260 30SM FEW190 20/14 A2997 RMK AC1 AC TR SLP150 DENSITY ALT 700FT
Pressure 29.98 in
Visibility 30.0 miles
Clouds Few 19000 ft
Dew Point Not available.
Humidity Not available.
Rainfall 0.00 in
Snow Depth Not available.
5:16 AM 8:55 PM
Waning Crescent, 7% visible
METAR CYXX 231700Z 22005KT 190V260 30SM FEW190 20/14 A2997 RMK AC1 AC TR SLP150 DENSITY ALT 700FT

Get Severe Weather Alerts

Thanks for signing up!

Be on the lookout for a verification email in your inbox.

You'll start receiving the daily forecast at 6 AM.

×

10-Day Weather Forecast

Almanac

Astronomy

May. 23, 2017 Rise Set
Actual Time
Civil Twilight
Nautical Twilight
Astronomical Twilight
Moon
Length of Visible Light
Length of Day
Tomorrow will be .
, % of the Moon is Illuminated

Today's Extremes

Country Highs Country Lows

Community

WunderPhotos

Category 6

Welcome to Category 6. This is the collective home for Weather Underground's featured writeups by Dr. Jeff Masters (right), Bob Henson (left), Chris Burt, and other regular contributors.

Nearby

Air Quality

  Air Quality AQ Index Pollutant
Not available.

Snow Depth

Station Depth Elevation

Earthquake Activity

City Distance Mag. Time & Date
Minimum magnitude displayed is 2.5.

Coastal Water Temperatures

Place Temperature

Stations

Nearby Weather Stations

Station Location Temp. Windchill Dew Point Humidity Wind Precip. Elev Updated Type
                   

Watches & Warnings

There are currently no watches in effect.